sensor_id;sensor_type;location;lat;lon;timestamp;P1;durP1;ratioP1;P2;durP2;ratioP2
68577;SDS011;61668;45.388;11.784;2023-04-16T00:00:16;10.60;;;4.00;;
68577;SDS011;61668;45.388;11.784;2023-04-16T00:02:42;10.00;;;3.30;;
68577;SDS011;61668;45.388;11.784;2023-04-16T00:05:07;8.80;;;3.20;;
68577;SDS011;61668;45.388;11.784;2023-04-16T00:07:33;11.60;;;4.20;;
68577;SDS011;61668;45.388;11.784;2023-04-16T00:09:59;11.00;;;4.10;;
68577;SDS011;61668;45.388;11.784;2023-04-16T00:12:25;13.10;;;4.30;;
68577;SDS011;61668;45.388;11.784;2023-04-16T00:14:51;9.90;;;4.10;;
68577;SDS011;61668;45.388;11.784;2023-04-16T00:17:17;11.40;;;3.30;;
68577;SDS011;61668;45.388;11.784;2023-04-16T00:19:43;10.00;;;2.90;;
68577;SDS011;61668;45.388;11.784;2023-04-16T00:22:08;8.70;;;2.90;;
68577;SDS011;61668;45.388;11.784;2023-04-16T00:24:34;9.40;;;2.90;;
68577;SDS011;61668;45.388;11.784;2023-04-16T00:27:01;8.00;;;2.70;;
68577;SDS011;61668;45.388;11.784;2023-04-16T00:29:26;10.10;;;3.20;;
68577;SDS011;61668;45.388;11.784;2023-04-16T00:31:53;9.20;;;2.60;;
68577;SDS011;61668;45.388;11.784;2023-04-16T00:34:18;21.20;;;8.90;;
68577;SDS011;61668;45.388;11.784;2023-04-16T00:36:44;15.60;;;5.80;;
68577;SDS011;61668;45.388;11.784;2023-04-16T00:39:10;10.90;;;4.00;;
68577;SDS011;61668;45.388;11.784;2023-04-16T00:41:36;11.60;;;3.30;;
68577;SDS011;61668;45.388;11.784;2023-04-16T00:44:02;11.30;;;4.60;;
68577;SDS011;61668;45.388;11.784;2023-04-16T00:46:28;11.00;;;4.40;;
68577;SDS011;61668;45.388;11.784;2023-04-16T00:48:55;11.10;;;4.30;;
68577;SDS011;61668;45.388;11.784;2023-04-16T00:51:22;10.20;;;3.60;;
68577;SDS011;61668;45.388;11.784;2023-04-16T00:53:48;12.40;;;3.70;;
68577;SDS011;61668;45.388;11.784;2023-04-16T00:56:15;9.00;;;3.40;;
68577;SDS011;61668;45.388;11.784;2023-04-16T00:58:41;11.20;;;5.10;;
68577;SDS011;61668;45.388;11.784;2023-04-16T01:01:07;11.90;;;4.70;;
68577;SDS011;61668;45.388;11.784;2023-04-16T01:03:43;12.00;;;5.30;;
68577;SDS011;61668;45.388;11.784;2023-04-16T01:06:10;12.70;;;6.20;;
68577;SDS011;61668;45.388;11.784;2023-04-16T01:08:37;12.10;;;5.30;;
68577;SDS011;61668;45.388;11.784;2023-04-16T01:11:03;11.40;;;5.50;;
68577;SDS011;61668;45.388;11.784;2023-04-16T01:13:29;11.30;;;5.10;;
68577;SDS011;61668;45.388;11.784;2023-04-16T01:15:55;11.80;;;4.70;;
68577;SDS011;61668;45.388;11.784;2023-04-16T01:18:22;9.60;;;3.40;;
68577;SDS011;61668;45.388;11.784;2023-04-16T01:20:49;10.20;;;4.40;;
68577;SDS011;61668;45.388;11.784;2023-04-16T01:23:16;10.50;;;4.50;;
68577;SDS011;61668;45.388;11.784;2023-04-16T01:25:45;11.40;;;3.80;;
68577;SDS011;61668;45.388;11.784;2023-04-16T01:28:11;10.30;;;4.30;;
68577;SDS011;61668;45.388;11.784;2023-04-16T01:30:37;8.30;;;3.10;;
68577;SDS011;61668;45.388;11.784;2023-04-16T01:33:03;10.80;;;3.70;;
68577;SDS011;61668;45.388;11.784;2023-04-16T01:35:29;11.50;;;4.00;;
68577;SDS011;61668;45.388;11.784;2023-04-16T01:37:55;9.70;;;3.40;;
68577;SDS011;61668;45.388;11.784;2023-04-16T01:40:21;10.70;;;3.50;;
68577;SDS011;61668;45.388;11.784;2023-04-16T01:42:46;8.90;;;2.70;;
68577;SDS011;61668;45.388;11.784;2023-04-16T01:45:12;9.70;;;3.10;;
68577;SDS011;61668;45.388;11.784;2023-04-16T01:47:38;10.00;;;3.50;;
68577;SDS011;61668;45.388;11.784;2023-04-16T01:50:05;8.80;;;3.60;;
68577;SDS011;61668;45.388;11.784;2023-04-16T01:52:32;10.00;;;4.30;;
68577;SDS011;61668;45.388;11.784;2023-04-16T01:54:57;9.50;;;4.20;;
68577;SDS011;61668;45.388;11.784;2023-04-16T01:57:23;9.80;;;4.00;;
68577;SDS011;61668;45.388;11.784;2023-04-16T01:59:49;8.90;;;4.00;;
68577;SDS011;61668;45.388;11.784;2023-04-16T02:02:15;11.40;;;4.80;;
68577;SDS011;61668;45.388;11.784;2023-04-16T02:04:43;14.40;;;7.00;;
68577;SDS011;61668;45.388;11.784;2023-04-16T02:07:10;16.80;;;8.10;;
68577;SDS011;61668;45.388;11.784;2023-04-16T02:09:37;12.10;;;6.30;;
68577;SDS011;61668;45.388;11.784;2023-04-16T02:12:05;15.20;;;5.80;;
68577;SDS011;61668;45.388;11.784;2023-04-16T02:14:31;10.90;;;5.50;;
68577;SDS011;61668;45.388;11.784;2023-04-16T02:16:58;12.70;;;5.50;;
68577;SDS011;61668;45.388;11.784;2023-04-16T02:19:25;14.00;;;6.30;;
68577;SDS011;61668;45.388;11.784;2023-04-16T02:21:52;12.60;;;5.00;;
68577;SDS011;61668;45.388;11.784;2023-04-16T02:24:19;11.00;;;4.30;;
68577;SDS011;61668;45.388;11.784;2023-04-16T02:26:46;8.70;;;4.20;;
68577;SDS011;61668;45.388;11.784;2023-04-16T02:29:12;13.30;;;5.50;;
68577;SDS011;61668;45.388;11.784;2023-04-16T02:31:39;11.30;;;5.10;;
68577;SDS011;61668;45.388;11.784;2023-04-16T02:34:04;10.20;;;4.40;;
68577;SDS011;61668;45.388;11.784;2023-04-16T02:36:31;11.30;;;4.50;;
68577;SDS011;61668;45.388;11.784;2023-04-16T02:39:00;9.70;;;3.70;;
68577;SDS011;61668;45.388;11.784;2023-04-16T02:41:25;12.40;;;6.10;;
68577;SDS011;61668;45.388;11.784;2023-04-16T02:43:51;10.90;;;4.30;;
68577;SDS011;61668;45.388;11.784;2023-04-16T02:46:16;12.00;;;4.80;;
68577;SDS011;61668;45.388;11.784;2023-04-16T02:48:42;9.70;;;4.80;;
68577;SDS011;61668;45.388;11.784;2023-04-16T02:51:08;11.80;;;4.70;;
68577;SDS011;61668;45.388;11.784;2023-04-16T02:53:34;11.10;;;3.80;;
68577;SDS011;61668;45.388;11.784;2023-04-16T02:55:59;10.80;;;4.00;;
68577;SDS011;61668;45.388;11.784;2023-04-16T02:58:25;11.50;;;5.20;;
68577;SDS011;61668;45.388;11.784;2023-04-16T03:00:52;10.90;;;4.00;;
68577;SDS011;61668;45.388;11.784;2023-04-16T03:03:19;10.80;;;3.80;;
68577;SDS011;61668;45.388;11.784;2023-04-16T03:05:46;13.40;;;5.40;;
68577;SDS011;61668;45.388;11.784;2023-04-16T03:08:12;11.10;;;3.90;;
68577;SDS011;61668;45.388;11.784;2023-04-16T03:10:38;9.20;;;3.80;;
68577;SDS011;61668;45.388;11.784;2023-04-16T03:13:05;10.30;;;4.30;;
68577;SDS011;61668;45.388;11.784;2023-04-16T03:15:31;11.90;;;4.30;;
68577;SDS011;61668;45.388;11.784;2023-04-16T03:17:58;11.30;;;3.30;;
68577;SDS011;61668;45.388;11.784;2023-04-16T03:20:24;12.90;;;4.30;;
68577;SDS011;61668;45.388;11.784;2023-04-16T03:22:50;11.60;;;4.30;;
68577;SDS011;61668;45.388;11.784;2023-04-16T03:25:19;12.00;;;3.90;;
68577;SDS011;61668;45.388;11.784;2023-04-16T03:27:45;10.40;;;3.60;;
68577;SDS011;61668;45.388;11.784;2023-04-16T03:30:11;10.40;;;3.90;;
68577;SDS011;61668;45.388;11.784;2023-04-16T03:32:38;11.20;;;4.00;;
68577;SDS011;61668;45.388;11.784;2023-04-16T03:35:05;10.90;;;4.40;;
68577;SDS011;61668;45.388;11.784;2023-04-16T03:37:32;10.20;;;4.70;;
68577;SDS011;61668;45.388;11.784;2023-04-16T03:39:58;12.70;;;4.90;;
68577;SDS011;61668;45.388;11.784;2023-04-16T03:42:24;10.40;;;4.60;;
68577;SDS011;61668;45.388;11.784;2023-04-16T03:44:50;9.80;;;4.00;;
68577;SDS011;61668;45.388;11.784;2023-04-16T03:47:18;10.40;;;3.70;;
68577;SDS011;61668;45.388;11.784;2023-04-16T03:49:44;11.80;;;3.50;;
68577;SDS011;61668;45.388;11.784;2023-04-16T03:52:10;8.30;;;3.20;;
68577;SDS011;61668;45.388;11.784;2023-04-16T03:54:36;11.00;;;4.30;;
68577;SDS011;61668;45.388;11.784;2023-04-16T03:57:02;10.30;;;3.50;;
68577;SDS011;61668;45.388;11.784;2023-04-16T03:59:27;11.60;;;4.00;;
68577;SDS011;61668;45.388;11.784;2023-04-16T04:01:53;11.10;;;3.90;;
68577;SDS011;61668;45.388;11.784;2023-04-16T04:04:19;10.60;;;3.30;;
68577;SDS011;61668;45.388;11.784;2023-04-16T04:06:45;8.80;;;3.20;;
68577;SDS011;61668;45.388;11.784;2023-04-16T04:09:12;9.70;;;4.00;;
68577;SDS011;61668;45.388;11.784;2023-04-16T04:11:39;9.70;;;3.40;;
68577;SDS011;61668;45.388;11.784;2023-04-16T04:14:05;11.30;;;4.40;;
68577;SDS011;61668;45.388;11.784;2023-04-16T04:16:31;9.60;;;4.00;;
68577;SDS011;61668;45.388;11.784;2023-04-16T04:18:57;12.30;;;4.50;;
68577;SDS011;61668;45.388;11.784;2023-04-16T04:21:25;11.10;;;3.70;;
68577;SDS011;61668;45.388;11.784;2023-04-16T04:23:54;10.50;;;4.30;;
68577;SDS011;61668;45.388;11.784;2023-04-16T04:26:19;11.20;;;4.40;;
68577;SDS011;61668;45.388;11.784;2023-04-16T04:28:45;11.60;;;4.30;;
68577;SDS011;61668;45.388;11.784;2023-04-16T04:31:12;9.50;;;3.30;;
68577;SDS011;61668;45.388;11.784;2023-04-16T04:33:38;10.00;;;4.30;;
68577;SDS011;61668;45.388;11.784;2023-04-16T04:36:04;12.00;;;4.50;;
68577;SDS011;61668;45.388;11.784;2023-04-16T04:38:30;11.50;;;5.10;;
68577;SDS011;61668;45.388;11.784;2023-04-16T04:40:56;11.20;;;4.30;;
68577;SDS011;61668;45.388;11.784;2023-04-16T04:43:23;12.70;;;4.90;;
68577;SDS011;61668;45.388;11.784;2023-04-16T04:45:49;11.70;;;4.60;;
68577;SDS011;61668;45.388;11.784;2023-04-16T04:48:15;11.50;;;4.40;;
68577;SDS011;61668;45.388;11.784;2023-04-16T04:50:41;10.40;;;4.70;;
68577;SDS011;61668;45.388;11.784;2023-04-16T04:53:08;11.20;;;4.50;;
68577;SDS011;61668;45.388;11.784;2023-04-16T04:55:39;11.50;;;5.40;;
68577;SDS011;61668;45.388;11.784;2023-04-16T04:58:05;12.00;;;5.10;;
68577;SDS011;61668;45.388;11.784;2023-04-16T05:00:32;12.20;;;5.30;;
68577;SDS011;61668;45.388;11.784;2023-04-16T05:03:04;11.70;;;5.50;;
68577;SDS011;61668;45.388;11.784;2023-04-16T05:05:31;12.40;;;4.60;;
68577;SDS011;61668;45.388;11.784;2023-04-16T05:07:56;14.20;;;5.80;;
68577;SDS011;61668;45.388;11.784;2023-04-16T05:10:22;11.80;;;5.00;;
68577;SDS011;61668;45.388;11.784;2023-04-16T05:12:48;11.90;;;5.50;;
68577;SDS011;61668;45.388;11.784;2023-04-16T05:15:14;13.70;;;5.70;;
68577;SDS011;61668;45.388;11.784;2023-04-16T05:17:40;14.80;;;4.70;;
68577;SDS011;61668;45.388;11.784;2023-04-16T05:20:07;10.90;;;4.90;;
68577;SDS011;61668;45.388;11.784;2023-04-16T05:22:33;12.10;;;5.10;;
68577;SDS011;61668;45.388;11.784;2023-04-16T05:24:59;11.20;;;4.00;;
68577;SDS011;61668;45.388;11.784;2023-04-16T05:27:25;11.40;;;4.40;;
68577;SDS011;61668;45.388;11.784;2023-04-16T05:29:51;10.20;;;3.90;;
68577;SDS011;61668;45.388;11.784;2023-04-16T05:32:16;11.60;;;4.50;;
68577;SDS011;61668;45.388;11.784;2023-04-16T05:34:42;11.80;;;3.70;;
68577;SDS011;61668;45.388;11.784;2023-04-16T05:37:08;9.40;;;3.50;;
68577;SDS011;61668;45.388;11.784;2023-04-16T05:39:33;11.60;;;4.20;;
68577;SDS011;61668;45.388;11.784;2023-04-16T05:41:59;12.70;;;4.00;;
68577;SDS011;61668;45.388;11.784;2023-04-16T05:44:25;8.80;;;3.10;;
68577;SDS011;61668;45.388;11.784;2023-04-16T05:46:51;8.80;;;3.10;;
68577;SDS011;61668;45.388;11.784;2023-04-16T05:49:17;10.00;;;3.50;;
68577;SDS011;61668;45.388;11.784;2023-04-16T05:51:47;8.70;;;3.10;;
68577;SDS011;61668;45.388;11.784;2023-04-16T05:54:13;9.00;;;3.30;;
68577;SDS011;61668;45.388;11.784;2023-04-16T05:56:38;8.10;;;2.20;;
68577;SDS011;61668;45.388;11.784;2023-04-16T05:59:04;8.10;;;2.60;;
68577;SDS011;61668;45.388;11.784;2023-04-16T06:01:31;8.70;;;2.50;;
68577;SDS011;61668;45.388;11.784;2023-04-16T06:03:57;8.50;;;2.80;;
68577;SDS011;61668;45.388;11.784;2023-04-16T06:06:22;10.00;;;2.60;;
68577;SDS011;61668;45.388;11.784;2023-04-16T06:08:48;9.70;;;2.90;;
68577;SDS011;61668;45.388;11.784;2023-04-16T06:11:14;8.20;;;2.70;;
68577;SDS011;61668;45.388;11.784;2023-04-16T06:13:41;7.10;;;2.10;;
68577;SDS011;61668;45.388;11.784;2023-04-16T06:16:07;8.30;;;2.40;;
68577;SDS011;61668;45.388;11.784;2023-04-16T06:18:32;7.50;;;2.10;;
68577;SDS011;61668;45.388;11.784;2023-04-16T06:20:58;8.10;;;2.40;;
68577;SDS011;61668;45.388;11.784;2023-04-16T06:23:24;6.90;;;1.90;;
68577;SDS011;61668;45.388;11.784;2023-04-16T06:25:50;7.60;;;1.80;;
68577;SDS011;61668;45.388;11.784;2023-04-16T06:28:16;8.50;;;2.50;;
68577;SDS011;61668;45.388;11.784;2023-04-16T06:30:42;7.00;;;2.00;;
68577;SDS011;61668;45.388;11.784;2023-04-16T06:33:07;9.40;;;2.40;;
68577;SDS011;61668;45.388;11.784;2023-04-16T06:35:33;7.60;;;2.60;;
68577;SDS011;61668;45.388;11.784;2023-04-16T06:37:59;7.70;;;2.40;;
68577;SDS011;61668;45.388;11.784;2023-04-16T06:40:25;8.40;;;2.60;;
68577;SDS011;61668;45.388;11.784;2023-04-16T06:42:50;7.60;;;1.90;;
68577;SDS011;61668;45.388;11.784;2023-04-16T06:45:16;6.80;;;1.70;;
68577;SDS011;61668;45.388;11.784;2023-04-16T06:47:42;8.50;;;2.40;;
68577;SDS011;61668;45.388;11.784;2023-04-16T06:50:08;7.20;;;2.70;;
68577;SDS011;61668;45.388;11.784;2023-04-16T06:52:34;8.10;;;2.20;;
68577;SDS011;61668;45.388;11.784;2023-04-16T06:55:00;7.50;;;1.70;;
68577;SDS011;61668;45.388;11.784;2023-04-16T06:57:26;6.40;;;1.70;;
68577;SDS011;61668;45.388;11.784;2023-04-16T06:59:52;10.30;;;2.20;;
68577;SDS011;61668;45.388;11.784;2023-04-16T07:02:18;7.70;;;2.00;;
68577;SDS011;61668;45.388;11.784;2023-04-16T07:04:43;7.60;;;1.70;;
68577;SDS011;61668;45.388;11.784;2023-04-16T07:07:09;8.00;;;1.80;;
68577;SDS011;61668;45.388;11.784;2023-04-16T07:09:35;6.90;;;1.60;;
68577;SDS011;61668;45.388;11.784;2023-04-16T07:12:01;8.10;;;2.30;;
68577;SDS011;61668;45.388;11.784;2023-04-16T07:14:26;6.60;;;2.00;;
68577;SDS011;61668;45.388;11.784;2023-04-16T07:16:52;6.20;;;1.70;;
68577;SDS011;61668;45.388;11.784;2023-04-16T07:19:18;7.10;;;1.60;;
68577;SDS011;61668;45.388;11.784;2023-04-16T07:21:43;7.30;;;1.70;;
68577;SDS011;61668;45.388;11.784;2023-04-16T07:24:10;7.70;;;1.70;;
68577;SDS011;61668;45.388;11.784;2023-04-16T07:26:36;6.40;;;1.90;;
68577;SDS011;61668;45.388;11.784;2023-04-16T07:29:02;6.40;;;2.10;;
68577;SDS011;61668;45.388;11.784;2023-04-16T07:31:28;7.10;;;1.70;;
68577;SDS011;61668;45.388;11.784;2023-04-16T07:33:53;6.20;;;1.40;;
68577;SDS011;61668;45.388;11.784;2023-04-16T07:36:19;6.70;;;1.50;;
68577;SDS011;61668;45.388;11.784;2023-04-16T07:38:45;8.10;;;1.90;;
68577;SDS011;61668;45.388;11.784;2023-04-16T07:41:11;5.90;;;1.00;;
68577;SDS011;61668;45.388;11.784;2023-04-16T07:43:37;5.20;;;1.10;;
68577;SDS011;61668;45.388;11.784;2023-04-16T07:46:03;5.70;;;1.00;;
68577;SDS011;61668;45.388;11.784;2023-04-16T07:48:29;6.80;;;1.40;;
68577;SDS011;61668;45.388;11.784;2023-04-16T07:50:55;6.10;;;1.30;;
68577;SDS011;61668;45.388;11.784;2023-04-16T07:53:21;6.90;;;1.30;;
68577;SDS011;61668;45.388;11.784;2023-04-16T07:55:46;5.90;;;1.10;;
68577;SDS011;61668;45.388;11.784;2023-04-16T07:58:12;5.80;;;1.00;;
68577;SDS011;61668;45.388;11.784;2023-04-16T08:00:38;6.20;;;1.00;;
68577;SDS011;61668;45.388;11.784;2023-04-16T08:03:04;5.30;;;0.90;;
68577;SDS011;61668;45.388;11.784;2023-04-16T08:05:30;5.00;;;0.50;;
68577;SDS011;61668;45.388;11.784;2023-04-16T08:07:55;5.70;;;1.30;;
68577;SDS011;61668;45.388;11.784;2023-04-16T08:10:21;5.00;;;0.40;;
68577;SDS011;61668;45.388;11.784;2023-04-16T08:12:47;4.60;;;0.40;;
68577;SDS011;61668;45.388;11.784;2023-04-16T08:15:12;5.50;;;0.60;;
68577;SDS011;61668;45.388;11.784;2023-04-16T08:17:38;5.20;;;0.60;;
68577;SDS011;61668;45.388;11.784;2023-04-16T08:20:04;4.80;;;0.40;;
68577;SDS011;61668;45.388;11.784;2023-04-16T08:22:32;5.10;;;0.70;;
68577;SDS011;61668;45.388;11.784;2023-04-16T08:24:58;4.50;;;0.40;;
68577;SDS011;61668;45.388;11.784;2023-04-16T08:27:23;4.30;;;0.60;;
68577;SDS011;61668;45.388;11.784;2023-04-16T08:29:49;4.10;;;0.60;;
68577;SDS011;61668;45.388;11.784;2023-04-16T08:32:15;4.90;;;0.40;;
68577;SDS011;61668;45.388;11.784;2023-04-16T08:34:41;4.20;;;0.40;;
68577;SDS011;61668;45.388;11.784;2023-04-16T08:37:07;4.10;;;0.50;;
68577;SDS011;61668;45.388;11.784;2023-04-16T08:39:33;4.80;;;0.40;;
68577;SDS011;61668;45.388;11.784;2023-04-16T08:42:01;5.00;;;0.50;;
68577;SDS011;61668;45.388;11.784;2023-04-16T08:44:36;5.40;;;0.70;;
68577;SDS011;61668;45.388;11.784;2023-04-16T08:47:08;4.70;;;0.70;;
68577;SDS011;61668;45.388;11.784;2023-04-16T08:49:42;4.90;;;0.80;;
68577;SDS011;61668;45.388;11.784;2023-04-16T08:52:15;4.90;;;0.50;;
68577;SDS011;61668;45.388;11.784;2023-04-16T08:54:55;5.80;;;0.80;;
68577;SDS011;61668;45.388;11.784;2023-04-16T08:57:25;4.70;;;0.70;;
68577;SDS011;61668;45.388;11.784;2023-04-16T08:59:56;3.00;;;0.30;;
68577;SDS011;61668;45.388;11.784;2023-04-16T09:02:24;3.40;;;0.40;;
68577;SDS011;61668;45.388;11.784;2023-04-16T09:04:52;3.60;;;0.50;;
68577;SDS011;61668;45.388;11.784;2023-04-16T09:07:20;4.80;;;0.50;;
68577;SDS011;61668;45.388;11.784;2023-04-16T09:09:47;3.80;;;0.40;;
68577;SDS011;61668;45.388;11.784;2023-04-16T09:12:14;4.30;;;0.70;;
68577;SDS011;61668;45.388;11.784;2023-04-16T09:14:41;3.90;;;0.50;;
68577;SDS011;61668;45.388;11.784;2023-04-16T09:17:08;5.10;;;0.50;;
68577;SDS011;61668;45.388;11.784;2023-04-16T09:19:34;4.30;;;0.50;;
68577;SDS011;61668;45.388;11.784;2023-04-16T09:22:00;5.30;;;0.60;;
68577;SDS011;61668;45.388;11.784;2023-04-16T09:24:27;4.30;;;0.50;;
68577;SDS011;61668;45.388;11.784;2023-04-16T09:26:53;4.10;;;0.50;;
68577;SDS011;61668;45.388;11.784;2023-04-16T09:29:37;5.30;;;0.60;;
68577;SDS011;61668;45.388;11.784;2023-04-16T09:32:10;4.50;;;0.40;;
68577;SDS011;61668;45.388;11.784;2023-04-16T09:35:08;4.30;;;0.30;;
68577;SDS011;61668;45.388;11.784;2023-04-16T09:37:34;4.70;;;0.50;;
68577;SDS011;61668;45.388;11.784;2023-04-16T09:40:01;4.30;;;0.40;;
68577;SDS011;61668;45.388;11.784;2023-04-16T09:42:33;4.20;;;0.40;;
68577;SDS011;61668;45.388;11.784;2023-04-16T09:45:04;4.30;;;0.50;;
68577;SDS011;61668;45.388;11.784;2023-04-16T09:47:41;3.60;;;0.40;;
68577;SDS011;61668;45.388;11.784;2023-04-16T09:50:13;4.00;;;0.40;;
68577;SDS011;61668;45.388;11.784;2023-04-16T09:52:42;3.90;;;0.50;;
68577;SDS011;61668;45.388;11.784;2023-04-16T09:55:10;4.10;;;0.60;;
68577;SDS011;61668;45.388;11.784;2023-04-16T09:57:36;4.00;;;0.50;;
68577;SDS011;61668;45.388;11.784;2023-04-16T10:00:05;4.20;;;0.40;;
68577;SDS011;61668;45.388;11.784;2023-04-16T10:02:34;4.30;;;0.50;;
68577;SDS011;61668;45.388;11.784;2023-04-16T10:05:03;5.10;;;0.40;;
68577;SDS011;61668;45.388;11.784;2023-04-16T10:07:33;4.30;;;0.70;;
68577;SDS011;61668;45.388;11.784;2023-04-16T10:10:01;3.40;;;0.40;;
68577;SDS011;61668;45.388;11.784;2023-04-16T10:12:28;5.90;;;1.20;;
68577;SDS011;61668;45.388;11.784;2023-04-16T10:14:57;4.10;;;0.40;;
68577;SDS011;61668;45.388;11.784;2023-04-16T10:17:23;3.90;;;0.30;;
68577;SDS011;61668;45.388;11.784;2023-04-16T10:19:50;3.50;;;0.40;;
68577;SDS011;61668;45.388;11.784;2023-04-16T10:22:16;3.80;;;0.40;;
68577;SDS011;61668;45.388;11.784;2023-04-16T10:24:42;4.70;;;0.40;;
68577;SDS011;61668;45.388;11.784;2023-04-16T10:27:09;4.10;;;0.30;;
68577;SDS011;61668;45.388;11.784;2023-04-16T10:29:35;7.30;;;1.80;;
68577;SDS011;61668;45.388;11.784;2023-04-16T10:32:02;8.00;;;2.10;;
68577;SDS011;61668;45.388;11.784;2023-04-16T10:34:28;5.70;;;0.80;;
68577;SDS011;61668;45.388;11.784;2023-04-16T10:36:55;4.20;;;0.40;;
68577;SDS011;61668;45.388;11.784;2023-04-16T10:39:22;4.20;;;0.30;;
68577;SDS011;61668;45.388;11.784;2023-04-16T10:42:06;6.20;;;0.50;;
68577;SDS011;61668;45.388;11.784;2023-04-16T10:44:36;5.50;;;0.60;;
68577;SDS011;61668;45.388;11.784;2023-04-16T10:47:09;4.60;;;0.40;;
68577;SDS011;61668;45.388;11.784;2023-04-16T10:49:36;5.40;;;0.80;;
68577;SDS011;61668;45.388;11.784;2023-04-16T10:52:11;6.60;;;1.30;;
68577;SDS011;61668;45.388;11.784;2023-04-16T10:54:39;5.50;;;0.70;;
68577;SDS011;61668;45.388;11.784;2023-04-16T10:57:14;4.80;;;0.60;;
68577;SDS011;61668;45.388;11.784;2023-04-16T10:59:42;7.70;;;0.90;;
68577;SDS011;61668;45.388;11.784;2023-04-16T11:02:14;5.70;;;1.00;;
68577;SDS011;61668;45.388;11.784;2023-04-16T11:04:42;5.00;;;0.70;;
68577;SDS011;61668;45.388;11.784;2023-04-16T11:09:52;4.90;;;0.50;;
68577;SDS011;61668;45.388;11.784;2023-04-16T11:12:36;4.10;;;0.50;;
68577;SDS011;61668;45.388;11.784;2023-04-16T11:15:12;5.90;;;0.80;;
68577;SDS011;61668;45.388;11.784;2023-04-16T11:17:41;5.60;;;0.50;;
68577;SDS011;61668;45.388;11.784;2023-04-16T11:20:14;4.10;;;0.40;;
68577;SDS011;61668;45.388;11.784;2023-04-16T11:22:44;4.50;;;0.70;;
68577;SDS011;61668;45.388;11.784;2023-04-16T11:25:11;5.80;;;1.20;;
68577;SDS011;61668;45.388;11.784;2023-04-16T11:27:37;3.80;;;0.40;;
68577;SDS011;61668;45.388;11.784;2023-04-16T11:30:07;4.80;;;0.50;;
68577;SDS011;61668;45.388;11.784;2023-04-16T11:32:37;4.40;;;0.60;;
68577;SDS011;61668;45.388;11.784;2023-04-16T11:35:16;4.20;;;0.40;;
68577;SDS011;61668;45.388;11.784;2023-04-16T11:37:45;4.30;;;0.50;;
68577;SDS011;61668;45.388;11.784;2023-04-16T11:40:12;4.00;;;0.30;;
68577;SDS011;61668;45.388;11.784;2023-04-16T11:42:39;5.00;;;0.70;;
68577;SDS011;61668;45.388;11.784;2023-04-16T11:45:10;4.30;;;0.50;;
68577;SDS011;61668;45.388;11.784;2023-04-16T11:47:52;4.60;;;0.50;;
68577;SDS011;61668;45.388;11.784;2023-04-16T11:50:25;4.50;;;0.50;;
68577;SDS011;61668;45.388;11.784;2023-04-16T11:52:54;5.40;;;0.30;;
68577;SDS011;61668;45.388;11.784;2023-04-16T11:55:22;3.40;;;0.40;;
68577;SDS011;61668;45.388;11.784;2023-04-16T11:57:48;5.20;;;0.40;;
68577;SDS011;61668;45.388;11.784;2023-04-16T12:00:14;4.30;;;0.30;;
68577;SDS011;61668;45.388;11.784;2023-04-16T12:02:42;4.60;;;0.50;;
68577;SDS011;61668;45.388;11.784;2023-04-16T12:05:36;4.10;;;0.30;;
68577;SDS011;61668;45.388;11.784;2023-04-16T12:10:35;4.40;;;0.30;;
68577;SDS011;61668;45.388;11.784;2023-04-16T12:13:23;3.90;;;0.40;;
68577;SDS011;61668;45.388;11.784;2023-04-16T12:15:51;4.40;;;0.50;;
68577;SDS011;61668;45.388;11.784;2023-04-16T12:18:20;4.60;;;0.60;;
68577;SDS011;61668;45.388;11.784;2023-04-16T12:20:47;4.40;;;0.50;;
68577;SDS011;61668;45.388;11.784;2023-04-16T12:23:28;3.50;;;0.40;;
68577;SDS011;61668;45.388;11.784;2023-04-16T12:25:57;4.20;;;0.40;;
68577;SDS011;61668;45.388;11.784;2023-04-16T12:28:31;3.40;;;0.40;;
68577;SDS011;61668;45.388;11.784;2023-04-16T12:30:58;3.60;;;0.30;;
68577;SDS011;61668;45.388;11.784;2023-04-16T12:33:25;3.50;;;0.30;;
68577;SDS011;61668;45.388;11.784;2023-04-16T12:35:51;3.50;;;0.30;;
68577;SDS011;61668;45.388;11.784;2023-04-16T12:38:16;3.40;;;0.30;;
68577;SDS011;61668;45.388;11.784;2023-04-16T12:40:42;4.20;;;0.50;;
68577;SDS011;61668;45.388;11.784;2023-04-16T12:43:08;3.50;;;0.30;;
68577;SDS011;61668;45.388;11.784;2023-04-16T12:45:35;3.80;;;0.30;;
68577;SDS011;61668;45.388;11.784;2023-04-16T12:48:03;4.00;;;0.40;;
68577;SDS011;61668;45.388;11.784;2023-04-16T12:50:29;4.50;;;0.50;;
68577;SDS011;61668;45.388;11.784;2023-04-16T12:52:55;4.80;;;0.60;;
68577;SDS011;61668;45.388;11.784;2023-04-16T12:55:22;4.40;;;0.40;;
68577;SDS011;61668;45.388;11.784;2023-04-16T12:57:48;4.10;;;0.60;;
68577;SDS011;61668;45.388;11.784;2023-04-16T13:00:17;4.90;;;0.40;;
68577;SDS011;61668;45.388;11.784;2023-04-16T13:02:44;3.40;;;0.40;;
68577;SDS011;61668;45.388;11.784;2023-04-16T13:05:10;3.40;;;0.30;;
68577;SDS011;61668;45.388;11.784;2023-04-16T13:07:37;4.20;;;0.30;;
68577;SDS011;61668;45.388;11.784;2023-04-16T13:10:04;3.60;;;0.40;;
68577;SDS011;61668;45.388;11.784;2023-04-16T13:12:30;4.20;;;0.60;;
68577;SDS011;61668;45.388;11.784;2023-04-16T13:14:57;4.10;;;0.40;;
68577;SDS011;61668;45.388;11.784;2023-04-16T13:17:22;4.00;;;0.50;;
68577;SDS011;61668;45.388;11.784;2023-04-16T13:19:48;3.90;;;0.30;;
68577;SDS011;61668;45.388;11.784;2023-04-16T13:22:14;3.50;;;0.30;;
68577;SDS011;61668;45.388;11.784;2023-04-16T13:24:40;4.40;;;0.30;;
68577;SDS011;61668;45.388;11.784;2023-04-16T13:27:06;3.20;;;0.40;;
68577;SDS011;61668;45.388;11.784;2023-04-16T13:29:33;3.10;;;0.30;;
68577;SDS011;61668;45.388;11.784;2023-04-16T13:32:01;2.70;;;0.20;;
68577;SDS011;61668;45.388;11.784;2023-04-16T13:34:28;3.60;;;0.30;;
68577;SDS011;61668;45.388;11.784;2023-04-16T13:36:53;3.30;;;0.30;;
68577;SDS011;61668;45.388;11.784;2023-04-16T13:39:19;3.60;;;0.20;;
68577;SDS011;61668;45.388;11.784;2023-04-16T13:41:45;3.70;;;0.40;;
68577;SDS011;61668;45.388;11.784;2023-04-16T13:44:13;3.30;;;0.20;;
68577;SDS011;61668;45.388;11.784;2023-04-16T13:46:39;4.90;;;0.30;;
68577;SDS011;61668;45.388;11.784;2023-04-16T13:49:05;2.90;;;0.30;;
68577;SDS011;61668;45.388;11.784;2023-04-16T13:51:31;3.00;;;0.20;;
68577;SDS011;61668;45.388;11.784;2023-04-16T13:53:57;4.10;;;0.30;;
68577;SDS011;61668;45.388;11.784;2023-04-16T13:56:23;2.80;;;0.20;;
68577;SDS011;61668;45.388;11.784;2023-04-16T13:58:49;2.90;;;0.30;;
68577;SDS011;61668;45.388;11.784;2023-04-16T14:01:16;2.80;;;0.30;;
68577;SDS011;61668;45.388;11.784;2023-04-16T14:03:42;3.00;;;0.30;;
68577;SDS011;61668;45.388;11.784;2023-04-16T14:06:07;2.40;;;0.20;;
68577;SDS011;61668;45.388;11.784;2023-04-16T14:08:33;2.80;;;0.20;;
68577;SDS011;61668;45.388;11.784;2023-04-16T14:10:59;3.00;;;0.30;;
68577;SDS011;61668;45.388;11.784;2023-04-16T14:13:25;3.60;;;0.20;;
68577;SDS011;61668;45.388;11.784;2023-04-16T14:15:54;2.90;;;0.30;;
68577;SDS011;61668;45.388;11.784;2023-04-16T14:18:20;2.90;;;0.30;;
68577;SDS011;61668;45.388;11.784;2023-04-16T14:20:47;3.70;;;0.30;;
68577;SDS011;61668;45.388;11.784;2023-04-16T14:23:13;2.20;;;0.20;;
68577;SDS011;61668;45.388;11.784;2023-04-16T14:25:41;4.40;;;0.40;;
68577;SDS011;61668;45.388;11.784;2023-04-16T14:28:07;3.20;;;0.30;;
68577;SDS011;61668;45.388;11.784;2023-04-16T14:30:33;3.00;;;0.30;;
68577;SDS011;61668;45.388;11.784;2023-04-16T14:32:59;2.80;;;0.20;;
68577;SDS011;61668;45.388;11.784;2023-04-16T14:35:25;2.90;;;0.20;;